Weather at Queen Beatrix International Airport

Public forecast

Using degrees Celsius for public forecast. Weather courtesy of forecast.io.

Current aviation weather report (METAR) for Queen Beatrix International Airport

Retrieved 2021/04/14 19:00 UTC (48 minutes ago):

TNCA 141900Z 06020KT 9999 SCT018 30/25 Q1009 NOSIG

Aviation forecast (TAF) for Queen Beatrix International Airport

Retrieved 2021/04/14 18:00 UTC (2 hours ago):

TAF TNCA 141800Z 1418/1518 07018KT 9999 SCT018 PROB30 TEMPO 1506/1516 5000 SHRA BKN015